Terminal Aerodrome Forecast
Issued by NWS

Home | Current Version | Previous Version | Text Only | Print | Product List | Glossary On
Versions: 1 2 3 4 5 6 7 8 9 10 11 12 13 14 15
000
FTUS43 KLSX 251700
TAFSUS
TAF
KSUS 251720Z 2518/2618 34005KT P6SM SKC
     FM260000 00000KT P6SM SKC
     FM261600 12005KT P6SM SCT020=

USA.gov is the U.S. government's official web portal to all federal, state and local government web resources and services.